Time;durP1;ratioP1;P1;durP2;ratioP2;P2;SDS_P1;SDS_P2;PMS_P1;PMS_P2;Temp;Humidity;BMP_temperature;BMP_pressure;BME280_temperature;BME280_humidity;BME280_pressure;Samples;Min_cycle;Max_cycle;Signal;HPM_P1;HPM_P2
2022/09/09 00:00:25;;;;;;;1.27;0.60;;;14.90;99.90;;;;;;4717251;30;20059;-85
2022/09/09 00:03:16;;;;;;;0.95;0.70;;;15.20;99.90;;;;;;4765615;30;20058;-85
2022/09/09 00:06:07;;;;;;;0.80;0.77;;;14.80;99.90;;;;;;4755333;30;20058;-85
2022/09/09 00:08:57;;;;;;;1.25;0.80;;;14.80;99.90;;;;;;4754214;30;20064;-84
2022/09/09 00:11:28;;;;;;;1.45;0.93;;;14.80;99.90;;;;;;4771154;30;20144;-84
2022/09/09 00:13:56;;;;;;;1.13;0.85;;;14.70;99.90;;;;;;4770950;30;20051;-84
2022/09/09 00:16:26;;;;;;;0.98;0.88;;;14.70;99.90;;;;;;4755323;30;20490;-84
2022/09/09 00:19:14;;;;;;;3.55;1.10;;;15.20;99.90;;;;;;4755267;30;20051;-84
2022/09/09 00:22:06;;;;;;;1.20;0.90;;;14.60;99.90;;;;;;4780718;30;20475;-84
2022/09/09 00:24:40;;;;;;;1.95;1.00;;;14.60;99.90;;;;;;4755097;30;20062;-84
2022/09/09 00:27:29;;;;;;;3.00;1.00;;;14.50;99.90;;;;;;4755573;30;20182;-84
2022/09/09 00:30:18;;;;;;;1.77;1.00;;;14.50;99.90;;;;;;4770817;30;20051;-84
2022/09/09 00:32:44;;;;;;;1.20;0.95;;;14.40;99.90;;;;;;4756250;30;20055;-84
2022/09/09 00:35:15;;;;;;;1.90;1.05;;;14.30;99.90;;;;;;4754997;30;20043;-84
2022/09/09 00:37:42;;;;;;;1.95;1.77;;;14.30;99.90;;;;;;4754519;30;20052;-84
2022/09/09 00:40:37;;;;;;;1.58;1.08;;;14.30;99.90;;;;;;4770631;30;20516;-84
2022/09/09 00:43:21;;;;;;;1.73;1.00;;;14.20;99.90;;;;;;4770458;30;20134;-84
2022/09/09 00:46:06;;;;;;;3.17;1.25;;;14.20;99.90;;;;;;4770349;30;20056;-84
2022/09/09 00:48:50;;;;;;;1.57;1.13;;;14.10;99.90;;;;;;4770648;30;20048;-84
2022/09/09 00:51:20;;;;;;;1.55;1.20;;;14.10;99.90;;;;;;4770371;30;20056;-84
2022/09/09 00:54:18;;;;;;;2.22;1.15;;;14.10;99.90;;;;;;4754402;30;20044;-84
2022/09/09 00:56:53;;;;;;;1.38;1.00;;;14.10;99.90;;;;;;4779398;30;20588;-84
2022/09/09 00:59:26;;;;;;;2.22;1.30;;;14.10;99.90;;;;;;4770344;30;20139;-84
2022/09/09 01:01:54;;;;;;;2.55;1.00;;;14.70;99.90;;;;;;4770224;30;20078;-84
2022/09/09 01:04:30;;;;;;;1.88;0.93;;;14.90;99.90;;;;;;4753918;30;20063;-85
2022/09/09 01:07:15;;;;;;;1.75;1.20;;;13.90;99.90;;;;;;4770107;30;20059;-84
2022/09/09 01:10:19;;;;;;;2.25;1.27;;;14.00;99.90;;;;;;4756022;30;20143;-84
2022/09/09 01:12:47;;;;;;;1.30;0.90;;;14.00;99.90;;;;;;4770274;30;20055;-85
2022/09/09 01:15:28;;;;;;;2.15;1.00;;;13.90;99.90;;;;;;4754042;30;20055;-85
2022/09/09 01:18:03;;;;;;;2.05;0.95;;;13.90;99.90;;;;;;4770896;30;20059;-85
2022/09/09 01:20:51;;;;;;;1.43;1.07;;;13.80;99.90;;;;;;4769723;30;20047;-85
2022/09/09 01:23:34;;;;;;;2.15;1.20;;;13.80;99.90;;;;;;4760862;30;20063;-84
2022/09/09 01:26:11;;;;;;;1.75;1.20;;;13.80;99.90;;;;;;4778360;30;20177;-85
2022/09/09 01:28:38;;;;;;;1.95;1.35;;;13.80;99.90;;;;;;4761289;30;20070;-84
2022/09/09 01:31:11;;;;;;;2.97;0.90;;;14.50;99.90;;;;;;4769934;30;20048;-84
2022/09/09 01:33:36;;;;;;;2.78;1.52;;;13.80;99.90;;;;;;4769660;30;20062;-85
2022/09/09 01:36:09;;;;;;;1.60;0.93;;;14.50;99.90;;;;;;4769800;30;20039;-84
2022/09/09 01:38:36;;;;;;;2.20;1.02;;;13.70;99.90;;;;;;4769852;30;20044;-85
2022/09/09 01:41:01;;;;;;;2.03;1.27;;;13.70;99.90;;;;;;4763432;30;20189;-84
2022/09/09 01:43:28;;;;;;;2.45;1.42;;;14.30;99.90;;;;;;4769820;30;20154;-85
2022/09/09 01:45:58;;;;;;;2.00;1.20;;;13.60;99.90;;;;;;4770862;30;20606;-84
2022/09/09 01:48:25;;;;;;;2.13;1.20;;;13.70;99.90;;;;;;4765915;30;20059;-84
2022/09/09 01:50:51;;;;;;;2.50;1.17;;;13.80;99.90;;;;;;4777708;30;20118;-84
2022/09/09 01:53:18;;;;;;;1.48;1.00;;;13.60;99.90;;;;;;4754047;30;20052;-84
2022/09/09 01:56:19;;;;;;;2.22;1.00;;;13.60;99.90;;;;;;4770149;30;20101;-84
2022/09/09 01:58:57;;;;;;;1.63;1.23;;;13.60;99.90;;;;;;4770516;29;20048;-84
2022/09/09 02:01:42;;;;;;;1.60;1.10;;;13.50;99.90;;;;;;4769824;30;20039;-84
2022/09/09 02:04:38;;;;;;;2.38;1.13;;;13.50;99.90;;;;;;4753987;30;20458;-84
2022/09/09 02:07:09;;;;;;;1.83;1.00;;;13.50;99.90;;;;;;4697465;30;20064;-84
2022/09/09 02:09:38;;;;;;;1.70;1.10;;;13.50;99.90;;;;;;4698393;30;20071;-84
2022/09/09 02:12:13;;;;;;;2.15;1.00;;;13.50;99.90;;;;;;4704533;30;20121;-84
2022/09/09 02:14:41;;;;;;;;;;;13.50;99.90;;;;;;4697847;30;20186;-84
2022/09/09 02:17:13;;;;;;;2.65;1.23;;;13.40;99.90;;;;;;4683226;30;19966;-84
2022/09/09 02:19:48;;;;;;;1.67;1.15;;;13.30;99.90;;;;;;4704089;30;20044;-84
2022/09/09 02:22:17;;;;;;;1.97;1.20;;;13.30;99.90;;;;;;4704064;30;20049;-84
2022/09/09 02:24:44;;;;;;;3.00;1.55;;;13.30;99.90;;;;;;4697759;30;20828;-85
2022/09/09 02:27:11;;;;;;;2.63;1.10;;;13.30;99.90;;;;;;4697526;30;20111;-84
2022/09/09 02:29:47;;;;;;;2.85;1.38;;;13.30;99.90;;;;;;4699481;30;20107;-84
2022/09/09 02:32:17;;;;;;;2.78;1.30;;;13.10;99.90;;;;;;4706693;30;20057;-85
2022/09/09 02:34:50;;;;;;;1.95;1.38;;;13.30;99.90;;;;;;4700628;30;20123;-85
2022/09/09 02:37:19;;;;;;;2.40;1.10;;;13.30;99.90;;;;;;4699742;30;20057;-84
2022/09/09 02:39:46;;;;;;;3.17;1.23;;;13.20;99.90;;;;;;4700640;30;20049;-85
2022/09/09 02:42:14;;;;;;;1.88;1.38;;;13.30;99.90;;;;;;4700195;30;20107;-85
2022/09/09 02:44:41;;;;;;;2.28;1.30;;;13.80;99.90;;;;;;4755155;30;20083;-85
2022/09/09 02:47:25;;;;;;;2.65;1.13;;;13.40;99.90;;;;;;4757014;30;20143;-86
2022/09/09 02:49:59;;;;;;;1.70;1.00;;;13.70;99.90;;;;;;4772941;30;20043;-86
2022/09/09 02:52:42;;;;;;;4.30;1.13;;;13.30;99.90;;;;;;4757891;30;20130;-85
2022/09/09 02:55:18;;;;;;;3.03;1.05;;;13.30;99.90;;;;;;4773016;30;20052;-85
2022/09/09 02:57:47;;;;;;;2.53;1.08;;;13.40;99.90;;;;;;4772464;30;20414;-85
2022/09/09 03:00:13;;;;;;;1.58;1.10;;;13.40;99.90;;;;;;4756989;30;20144;-85
2022/09/09 03:02:39;;;;;;;2.42;1.40;;;13.50;99.90;;;;;;4774393;30;20226;-87
2022/09/09 03:05:06;;;;;;;2.28;1.30;;;13.50;99.90;;;;;;4756907;30;20186;-85
2022/09/09 03:07:32;;;;;;;2.10;1.25;;;13.50;99.90;;;;;;4772238;30;20080;-85
2022/09/09 03:09:58;;;;;;;5.70;2.50;;;13.60;99.90;;;;;;4755745;30;20074;-85
2022/09/09 03:12:24;;;;;;;5.28;2.13;;;13.70;99.90;;;;;;4773058;30;20711;-86
2022/09/09 03:14:49;;;;;;;3.88;1.75;;;13.70;99.90;;;;;;4772555;30;20043;-85
2022/09/09 03:17:16;;;;;;;4.75;2.67;;;13.90;99.90;;;;;;4772376;30;20051;-86
2022/09/09 03:19:42;;;;;;;4.53;1.90;;;13.80;99.90;;;;;;4756391;30;20055;-85
2022/09/09 03:22:11;;;;;;;4.00;1.80;;;14.10;99.90;;;;;;4756800;30;20056;-85
2022/09/09 03:24:36;;;;;;;5.32;2.20;;;13.90;99.90;;;;;;4756254;30;20050;-85
2022/09/09 03:27:02;;;;;;;2.53;1.48;;;13.90;99.90;;;;;;4788153;30;20447;-86
2022/09/09 03:29:28;;;;;;;2.13;1.30;;;14.00;99.90;;;;;;4764949;30;20062;-84
2022/09/09 03:31:54;;;;;;;3.03;1.23;;;13.70;99.90;;;;;;4772427;30;20055;-85
2022/09/09 03:34:20;;;;;;;2.20;1.33;;;14.00;99.90;;;;;;4771034;30;20047;-84
2022/09/09 03:36:46;;;;;;;1.75;1.17;;;14.10;99.90;;;;;;4755733;30;20071;-85
2022/09/09 03:39:11;;;;;;;2.38;1.27;;;14.80;99.90;;;;;;4771947;30;20066;-84
2022/09/09 03:41:38;;;;;;;2.28;1.50;;;14.60;99.90;;;;;;4762374;30;20062;-84
2022/09/09 03:44:04;;;;;;;2.10;1.20;;;14.90;99.90;;;;;;4772393;30;20100;-84
2022/09/09 03:46:29;;;;;;;4.07;1.52;;;14.20;99.90;;;;;;4758259;30;20504;-85
2022/09/09 03:48:55;;;;;;;3.63;1.52;;;14.20;99.90;;;;;;4778749;30;20039;-84
2022/09/09 03:51:21;;;;;;;1.67;1.20;;;14.20;99.90;;;;;;4778466;30;20101;-84
2022/09/09 03:53:47;;;;;;;2.08;1.10;;;14.90;99.90;;;;;;4772178;30;20695;-84
2022/09/09 03:56:13;;;;;;;2.05;1.35;;;14.30;99.90;;;;;;4755539;30;20059;-85
2022/09/09 03:58:39;;;;;;;1.33;0.90;;;14.20;99.90;;;;;;4755386;30;20063;-85
2022/09/09 04:01:16;;;;;;;2.17;0.80;;;14.30;99.90;;;;;;4772042;30;20044;-85
2022/09/09 04:03:42;;;;;;;2.13;1.05;;;14.30;99.90;;;;;;4755426;30;20087;-84
2022/09/09 04:06:10;;;;;;;1.77;0.90;;;14.40;99.90;;;;;;4740627;30;20205;-84
2022/09/09 04:08:38;;;;;;;1.30;0.90;;;14.30;99.90;;;;;;4771411;30;20064;-84
2022/09/09 04:11:06;;;;;;;1.73;0.85;;;14.30;99.90;;;;;;4755322;30;20055;-85
2022/09/09 04:13:37;;;;;;;5.40;1.40;;;14.30;99.90;;;;;;4772186;30;20064;-85
2022/09/09 04:16:03;;;;;;;2.13;1.00;;;14.40;99.90;;;;;;4756056;30;20058;-85
2022/09/09 04:18:29;;;;;;;3.25;1.00;;;14.40;99.90;;;;;;4771372;30;20113;-84
2022/09/09 04:20:59;;;;;;;3.47;1.63;;;14.40;99.90;;;;;;4778831;30;20056;-84
2022/09/09 04:23:28;;;;;;;1.77;0.77;;;14.40;99.90;;;;;;4787290;30;20109;-85
2022/09/09 04:25:55;;;;;;;3.53;1.13;;;14.40;99.90;;;;;;4772359;30;20047;-85
2022/09/09 04:28:24;;;;;;;2.67;0.70;;;14.40;99.90;;;;;;4771275;30;20043;-84
2022/09/09 04:30:50;;;;;;;0.93;0.60;;;14.60;99.90;;;;;;4777715;30;20047;-84
2022/09/09 04:33:17;;;;;;;4.03;0.80;;;14.50;99.90;;;;;;4755857;30;20143;-84
2022/09/09 04:35:49;;;;;;;2.42;0.80;;;14.50;99.90;;;;;;4771054;30;20123;-84
2022/09/09 04:38:16;;;;;;;1.35;0.50;;;14.50;99.90;;;;;;4771239;30;20040;-85
2022/09/09 04:40:44;;;;;;;2.83;0.40;;;14.50;99.90;;;;;;4754809;30;20043;-85
2022/09/09 04:43:10;;;;;;;0.60;0.43;;;14.60;99.90;;;;;;4771297;30;20101;-84
2022/09/09 04:45:37;;;;;;;0.93;0.50;;;14.60;99.90;;;;;;4771002;30;20436;-85
2022/09/09 04:48:06;;;;;;;1.38;0.40;;;14.70;99.90;;;;;;4781423;30;20066;-84
2022/09/09 04:50:31;;;;;;;0.52;0.45;;;14.60;99.90;;;;;;4770962;30;20107;-84
2022/09/09 04:53:01;;;;;;;0.77;0.40;;;14.60;99.90;;;;;;4755179;30;20056;-84
2022/09/09 04:55:27;;;;;;;0.80;0.32;;;14.60;99.90;;;;;;4753847;30;20059;-84
2022/09/09 04:57:53;;;;;;;1.17;0.40;;;15.20;99.90;;;;;;4786318;29;20051;-84
2022/09/09 05:00:19;;;;;;;1.10;0.40;;;14.70;99.90;;;;;;4784431;30;20130;-86
2022/09/09 05:02:46;;;;;;;1.67;0.60;;;14.80;99.90;;;;;;4786201;30;20054;-85
2022/09/09 05:05:12;;;;;;;0.65;0.45;;;14.30;99.90;;;;;;4771137;30;20051;-85
2022/09/09 05:07:37;;;;;;;0.60;0.40;;;14.70;99.90;;;;;;4786192;30;20056;-87
2022/09/09 05:10:04;;;;;;;0.73;0.32;;;14.70;99.90;;;;;;4772218;30;20421;-85
2022/09/09 05:12:31;;;;;;;0.70;0.30;;;14.60;99.90;;;;;;4783269;30;20054;-84
2022/09/09 05:14:56;;;;;;;0.50;0.40;;;14.60;99.90;;;;;;4771080;30;20075;-84
2022/09/09 05:17:23;;;;;;;2.40;0.60;;;14.70;99.90;;;;;;4756044;30;20044;-85
2022/09/09 05:19:49;;;;;;;1.20;0.40;;;14.60;99.90;;;;;;4780977;30;20066;-85
2022/09/09 05:22:20;;;;;;;1.25;0.57;;;15.00;99.90;;;;;;4781298;30;20122;-84
2022/09/09 05:24:45;;;;;;;1.20;0.43;;;15.40;99.90;;;;;;4775355;30;20478;-84
2022/09/09 05:27:12;;;;;;;0.52;0.50;;;14.60;99.90;;;;;;4770066;30;20071;-84
2022/09/09 05:29:38;;;;;;;0.77;0.50;;;14.70;99.90;;;;;;4770312;29;20040;-85
2022/09/09 05:32:04;;;;;;;1.40;0.70;;;14.60;99.90;;;;;;4773778;30;20104;-85
2022/09/09 05:34:30;;;;;;;0.95;0.65;;;14.70;99.90;;;;;;4755226;30;20079;-90
2022/09/09 05:36:56;;;;;;;1.77;0.70;;;14.60;99.90;;;;;;4754825;30;20098;-87
2022/09/09 05:39:21;;;;;;;1.05;0.55;;;14.70;99.90;;;;;;4761211;30;20406;-84
2022/09/09 05:41:47;;;;;;;3.42;1.15;;;15.00;99.90;;;;;;4753584;30;20052;-86
2022/09/09 05:44:13;;;;;;;1.70;0.90;;;14.70;99.90;;;;;;4754248;30;20055;-85
2022/09/09 05:46:39;;;;;;;3.10;0.90;;;14.70;99.90;;;;;;4770375;30;20051;-84
2022/09/09 05:49:05;;;;;;;2.20;0.77;;;14.70;99.90;;;;;;4786019;30;20558;-83
2022/09/09 05:51:31;;;;;;;1.75;0.73;;;14.70;99.90;;;;;;4754270;30;20414;-87
2022/09/09 05:54:00;;;;;;;1.30;0.68;;;14.70;99.90;;;;;;4778373;30;20105;-87
2022/09/09 05:56:28;;;;;;;0.75;0.50;;;14.70;99.90;;;;;;4770325;30;20044;-86
2022/09/09 05:58:55;;;;;;;1.10;0.70;;;14.80;99.90;;;;;;4754029;30;20051;-86
2022/09/09 06:01:26;;;;;;;1.08;0.70;;;14.70;99.90;;;;;;4769570;30;20094;-88
2022/09/09 06:03:52;;;;;;;1.90;0.80;;;14.80;99.90;;;;;;4769781;30;20502;-88
2022/09/09 06:06:21;;;;;;;2.55;1.00;;;14.80;99.90;;;;;;4769953;29;20054;-85
2022/09/09 06:08:48;;;;;;;1.20;0.70;;;14.80;99.90;;;;;;4783001;30;20056;-86
2022/09/09 06:11:17;;;;;;;1.75;0.60;;;15.40;99.90;;;;;;4757618;30;20048;-85
2022/09/09 06:13:43;;;;;;;1.73;0.95;;;14.80;99.90;;;;;;4773331;30;20047;-88
2022/09/09 06:16:11;;;;;;;1.38;0.73;;;14.80;99.90;;;;;;4773731;30;20066;-84
2022/09/09 06:18:38;;;;;;;1.77;0.88;;;14.80;99.90;;;;;;4757238;30;20048;-85
2022/09/09 06:21:06;;;;;;;1.08;0.77;;;14.80;99.90;;;;;;4773146;30;20171;-84
2022/09/09 06:23:35;;;;;;;1.35;0.70;;;14.80;99.90;;;;;;4773385;30;20048;-84
2022/09/09 06:26:12;;;;;;;2.00;1.00;;;14.90;99.90;;;;;;4779533;30;20052;-84
2022/09/09 06:28:39;;;;;;;1.23;0.73;;;14.90;99.90;;;;;;4773110;30;20067;-85
2022/09/09 06:31:09;;;;;;;2.03;0.82;;;14.90;99.90;;;;;;4772919;30;20043;-83
2022/09/09 06:33:40;;;;;;;1.63;1.00;;;15.00;99.90;;;;;;4756797;30;20060;-82
2022/09/09 06:36:10;;;;;;;2.25;0.98;;;15.00;99.90;;;;;;4773691;29;20048;-83
2022/09/09 06:38:36;;;;;;;1.38;0.85;;;15.00;99.90;;;;;;4773122;30;20063;-82
2022/09/09 06:41:02;;;;;;;1.95;0.90;;;15.00;99.90;;;;;;4756835;30;20055;-83
2022/09/09 06:43:28;;;;;;;3.13;1.17;;;15.10;99.90;;;;;;4772629;30;20059;-86
2022/09/09 06:45:59;;;;;;;2.53;1.15;;;15.20;99.90;;;;;;4773285;30;20059;-84
2022/09/09 06:48:27;;;;;;;2.83;1.30;;;15.00;99.90;;;;;;4772623;30;20055;-83
2022/09/09 06:51:08;;;;;;;1.67;0.80;;;15.20;99.90;;;;;;4772726;30;20071;-84
2022/09/09 06:53:35;;;;;;;1.60;0.93;;;15.20;99.90;;;;;;4756702;30;20463;-84
2022/09/09 06:56:22;;;;;;;1.95;0.90;;;15.20;99.90;;;;;;4773404;30;20385;-84
2022/09/09 06:58:49;;;;;;;1.15;0.80;;;15.20;99.90;;;;;;4763359;30;20501;-83
2022/09/09 07:01:17;;;;;;;2.00;1.20;;;15.30;99.90;;;;;;4772966;30;20047;-81
2022/09/09 07:03:47;;;;;;;1.20;0.80;;;15.40;99.90;;;;;;4772351;30;20083;-82
2022/09/09 07:06:20;;;;;;;1.50;0.70;;;15.40;99.90;;;;;;4772403;29;20047;-82
2022/09/09 07:08:53;;;;;;;1.27;0.80;;;15.40;99.90;;;;;;4772726;30;20139;-84
2022/09/09 07:11:21;;;;;;;1.35;0.70;;;15.50;99.90;;;;;;4772507;30;20066;-82
2022/09/09 07:13:48;;;;;;;1.98;0.80;;;15.60;99.90;;;;;;4772198;30;20105;-82
2022/09/09 07:16:17;;;;;;;1.40;0.80;;;15.70;99.90;;;;;;4772094;30;20523;-83
2022/09/09 07:18:43;;;;;;;2.25;1.10;;;15.80;99.90;;;;;;4756364;30;20142;-84
2022/09/09 07:21:11;;;;;;;2.08;1.13;;;16.00;99.90;;;;;;4772098;30;20073;-83
2022/09/09 07:23:38;;;;;;;1.73;0.75;;;15.90;99.90;;;;;;4755999;30;20070;-83
2022/09/09 07:26:09;;;;;;;0.93;0.60;;;16.00;99.90;;;;;;4772119;30;20074;-83
2022/09/09 07:28:35;;;;;;;0.80;0.50;;;16.10;99.90;;;;;;4756335;30;20044;-81
2022/09/09 07:31:02;;;;;;;1.80;0.70;;;16.20;99.90;;;;;;4779047;30;20051;-82
2022/09/09 07:33:32;;;;;;;0.73;0.50;;;16.20;99.90;;;;;;4771993;30;20044;-82
2022/09/09 07:36:09;;;;;;;2.15;0.73;;;16.10;99.90;;;;;;4774251;30;20052;-83
2022/09/09 07:38:58;;;;;;;1.33;0.68;;;16.30;99.90;;;;;;4790042;30;20055;-82
2022/09/09 07:41:25;;;;;;;2.33;1.00;;;16.40;99.90;;;;;;4790114;30;20039;-83
2022/09/09 07:43:53;;;;;;;2.22;0.70;;;16.40;99.90;;;;;;4789789;30;20051;-82
2022/09/09 07:46:21;;;;;;;1.52;0.80;;;16.50;99.90;;;;;;4790062;30;20112;-82
2022/09/09 07:48:52;;;;;;;2.03;0.80;;;16.50;99.90;;;;;;4789794;30;20062;-83
2022/09/09 07:51:22;;;;;;;2.00;0.80;;;16.60;99.90;;;;;;4773580;30;20539;-83
2022/09/09 07:53:51;;;;;;;3.28;0.82;;;16.70;99.90;;;;;;4773515;30;20062;-82
2022/09/09 07:56:18;;;;;;;1.45;0.73;;;16.70;99.90;;;;;;4789578;30;20051;-84
2022/09/09 07:58:46;;;;;;;1.70;0.85;;;16.80;99.90;;;;;;4789445;30;20104;-83
2022/09/09 08:01:22;;;;;;;2.50;0.80;;;16.80;99.90;;;;;;4789624;30;20130;-84
2022/09/09 08:03:58;;;;;;;1.05;0.75;;;16.80;99.90;;;;;;4773368;30;20478;-83
2022/09/09 08:06:26;;;;;;;1.45;0.85;;;17.00;99.90;;;;;;4789126;29;20374;-82
2022/09/09 08:08:52;;;;;;;2.03;0.60;;;17.00;99.90;;;;;;4770371;30;20059;-82
2022/09/09 08:11:19;;;;;;;1.55;0.98;;;17.10;99.90;;;;;;4771451;30;20501;-83
2022/09/09 08:13:44;;;;;;;1.98;0.90;;;17.20;99.90;;;;;;4771439;30;20097;-83
2022/09/09 08:16:18;;;;;;;2.15;0.80;;;17.30;99.90;;;;;;4771216;30;20051;-83
2022/09/09 08:18:44;;;;;;;1.77;0.95;;;17.40;99.90;;;;;;4771173;30;20591;-83
2022/09/09 08:21:17;;;;;;;1.20;0.77;;;17.40;99.90;;;;;;4769981;30;20077;-83
2022/09/09 08:23:45;;;;;;;1.55;0.70;;;17.50;99.90;;;;;;4771303;30;20051;-84
2022/09/09 08:26:16;;;;;;;1.25;0.70;;;17.60;99.90;;;;;;4771214;30;20405;-86
2022/09/09 08:28:43;;;;;;;1.55;0.70;;;17.60;99.90;;;;;;4770959;30;20051;-84
2022/09/09 08:31:16;;;;;;;1.02;0.50;;;17.70;99.90;;;;;;4770342;30;20048;-83
2022/09/09 08:33:45;;;;;;;0.80;0.40;;;17.80;99.90;;;;;;4770974;30;20058;-82
2022/09/09 08:36:14;;;;;;;1.98;0.93;;;17.90;99.90;;;;;;4771107;29;20075;-83
2022/09/09 08:38:41;;;;;;;2.15;1.00;;;18.00;99.90;;;;;;4769818;30;20112;-84
2022/09/09 08:41:47;;;;;;;2.35;0.60;;;18.00;99.90;;;;;;4770980;30;20054;-83
2022/09/09 08:44:25;;;;;;;2.28;0.70;;;18.10;99.90;;;;;;4770801;30;20091;-83
2022/09/09 08:47:16;;;;;;;1.95;0.70;;;18.10;99.90;;;;;;4771154;30;20134;-84
2022/09/09 08:50:01;;;;;;;2.25;0.50;;;18.20;99.90;;;;;;4769550;30;20058;-85
2022/09/09 08:52:38;;;;;;;1.15;0.75;;;18.30;99.90;;;;;;4698437;30;20571;-83
2022/09/09 08:55:28;;;;;;;1.10;0.70;;;18.40;99.90;;;;;;4698613;30;20090;-83
2022/09/09 08:57:57;;;;;;;1.98;0.55;;;18.50;99.90;;;;;;4698374;30;20580;-85
2022/09/09 09:00:28;;;;;;;1.08;0.65;;;18.60;99.90;;;;;;4698304;30;20051;-83
2022/09/09 09:03:09;;;;;;;1.23;0.57;;;18.70;99.90;;;;;;4698150;30;20500;-84
2022/09/09 09:06:01;;;;;;;0.80;0.77;;;18.80;99.90;;;;;;4698409;30;20060;-82
2022/09/09 09:08:35;;;;;;;1.83;0.70;;;18.80;99.90;;;;;;4683630;30;20065;-84
2022/09/09 09:11:01;;;;;;;2.25;0.60;;;19.00;99.90;;;;;;4698228;30;20061;-83
2022/09/09 09:13:43;;;;;;;1.20;0.60;;;19.00;99.90;;;;;;4698042;30;20107;-82
2022/09/09 09:16:37;;;;;;;2.78;0.98;;;19.00;99.90;;;;;;4698003;30;20535;-82
2022/09/09 09:19:03;;;;;;;1.02;0.80;;;19.10;99.90;;;;;;4698180;30;20064;-84
2022/09/09 09:21:54;;;;;;;1.20;0.47;;;19.10;99.90;;;;;;4698015;30;20053;-83
2022/09/09 09:24:24;;;;;;;0.90;0.50;;;19.30;99.90;;;;;;4698057;30;20061;-84
2022/09/09 09:26:50;;;;;;;1.77;0.50;;;19.30;99.90;;;;;;4697949;30;20057;-83
2022/09/09 09:29:19;;;;;;;1.80;0.55;;;19.40;99.90;;;;;;4725496;30;20060;-82
2022/09/09 09:31:55;;;;;;;2.58;0.60;;;19.50;99.90;;;;;;4768896;30;20397;-83
2022/09/09 09:34:21;;;;;;;1.00;0.60;;;19.50;99.90;;;;;;4770018;30;20131;-85
2022/09/09 09:36:54;;;;;;;2.42;0.55;;;19.50;99.90;;;;;;4769690;30;20462;-83
2022/09/09 09:39:28;;;;;;;3.05;0.57;;;19.40;99.90;;;;;;4770131;30;20068;-83
2022/09/09 09:41:54;;;;;;;2.30;0.50;;;19.50;99.90;;;;;;4769503;30;20043;-82
2022/09/09 09:44:24;;;;;;;1.42;0.50;;;19.50;99.90;;;;;;4768598;30;20397;-83
2022/09/09 09:46:50;;;;;;;0.88;0.45;;;19.50;99.90;;;;;;4768553;30;20044;-83
2022/09/09 09:49:17;;;;;;;0.88;0.70;;;19.60;99.90;;;;;;4769817;30;20109;-83
2022/09/09 09:51:43;;;;;;;2.40;0.43;;;19.50;99.90;;;;;;4769845;30;20051;-83
2022/09/09 09:54:39;;;;;;;1.23;0.50;;;19.60;99.90;;;;;;4769773;30;20051;-83
2022/09/09 09:57:31;;;;;;;1.02;0.40;;;19.80;99.90;;;;;;4717756;30;20095;-83
2022/09/09 10:00:09;;;;;;;2.25;0.47;;;19.90;99.90;;;;;;4732370;30;20139;-82
2022/09/09 10:02:42;;;;;;;1.55;0.52;;;20.00;99.90;;;;;;4732436;30;20064;-84
2022/09/09 10:05:26;;;;;;;0.63;0.45;;;20.20;99.90;;;;;;4732511;30;20565;-82
2022/09/09 10:08:11;;;;;;;0.85;0.40;;;20.20;99.90;;;;;;4732001;30;20053;-82
2022/09/09 10:10:51;;;;;;;0.88;0.40;;;20.50;99.90;;;;;;4732452;30;20056;-83
2022/09/09 10:13:33;;;;;;;0.45;0.28;;;20.60;99.90;;;;;;4732322;30;20052;-83
2022/09/09 10:16:27;;;;;;;1.13;0.50;;;20.70;99.90;;;;;;4732297;30;20521;-82
2022/09/09 10:19:00;;;;;;;2.17;0.50;;;20.70;99.90;;;;;;4732342;30;20056;-82
2022/09/09 10:21:43;;;;;;;1.17;0.32;;;20.60;99.90;;;;;;4732067;30;20507;-82
2022/09/09 10:24:23;;;;;;;2.20;0.50;;;20.60;99.90;;;;;;4732187;30;20060;-83
2022/09/09 10:27:16;;;;;;;1.27;0.50;;;20.50;99.90;;;;;;4732153;30;20099;-83
2022/09/09 10:30:02;;;;;;;0.93;0.47;;;20.40;99.90;;;;;;4732159;30;20048;-82
2022/09/09 10:32:50;;;;;;;3.53;0.57;;;20.30;99.90;;;;;;4735422;30;20045;-82
2022/09/09 10:35:42;;;;;;;1.50;0.63;;;20.30;99.90;;;;;;4769414;30;20064;-82
2022/09/09 10:38:33;;;;;;;1.27;0.40;;;20.40;99.90;;;;;;4769653;30;20102;-82
2022/09/09 10:41:10;;;;;;;3.92;0.55;;;20.40;99.90;;;;;;4769528;30;20138;-83
2022/09/09 10:43:42;;;;;;;1.27;0.30;;;20.50;99.90;;;;;;4769476;30;20052;-83
2022/09/09 10:46:14;;;;;;;1.50;0.43;;;20.40;99.90;;;;;;4769491;30;20094;-83
2022/09/09 10:48:41;;;;;;;2.05;0.50;;;20.40;99.90;;;;;;4752707;30;20052;-83
2022/09/09 10:51:22;;;;;;;3.15;0.55;;;20.40;99.90;;;;;;4752356;30;20052;-83
2022/09/09 10:53:53;;;;;;;3.55;0.40;;;20.40;99.90;;;;;;4752087;30;20056;-85
2022/09/09 10:56:23;;;;;;;1.80;0.30;;;20.40;99.90;;;;;;4768622;30;20056;-83
2022/09/09 10:59:12;;;;;;;1.75;0.40;;;20.30;99.90;;;;;;4758855;30;20489;-85
2022/09/09 11:02:08;;;;;;;3.10;0.63;;;20.30;99.90;;;;;;4755003;30;20170;-82
2022/09/09 11:04:42;;;;;;;2.22;0.47;;;20.20;99.90;;;;;;4700311;30;20174;-83
2022/09/09 11:07:13;;;;;;;2.45;0.47;;;20.10;99.90;;;;;;4704892;30;20076;-82
2022/09/09 11:09:48;;;;;;;1.00;0.40;;;20.10;99.90;;;;;;4717255;30;20068;-81
2022/09/09 11:12:19;;;;;;;;;;;20.00;99.90;;;;;;4717912;30;20495;-82
2022/09/09 11:15:05;;;;;;;3.35;0.40;;;19.90;99.90;;;;;;4717125;30;19927;-82
2022/09/09 11:17:43;;;;;;;1.55;0.30;;;19.90;99.90;;;;;;4716953;30;20049;-82
2022/09/09 11:20:12;;;;;;;2.15;0.30;;;20.10;99.90;;;;;;4717080;30;20057;-83
2022/09/09 11:22:54;;;;;;;0.73;0.30;;;20.40;99.90;;;;;;4717972;30;20138;-84
2022/09/09 11:25:40;;;;;;;2.47;0.30;;;20.70;99.90;;;;;;4713110;30;20060;-87
2022/09/09 11:28:11;;;;;;;;;;;20.90;99.90;;;;;;4717694;30;20065;-84
2022/09/09 11:31:16;;;;;;;2.40;0.30;;;20.90;99.90;;;;;;4708742;30;19923;-83
2022/09/09 11:33:57;;;;;;;0.85;0.40;;;20.90;99.90;;;;;;4681953;30;20070;-83
2022/09/09 11:36:29;;;;;;;1.05;0.20;;;21.00;99.90;;;;;;4683575;30;20081;-85
2022/09/09 11:39:22;;;;;;;0.63;0.30;;;21.10;99.90;;;;;;4653818;30;20064;-83
2022/09/09 11:41:48;;;;;;;1.30;0.40;;;21.40;99.90;;;;;;4714429;30;20091;-81
2022/09/09 11:44:29;;;;;;;1.80;0.30;;;21.60;99.90;;;;;;4718977;30;20088;-83
2022/09/09 11:46:55;;;;;;;1.08;0.30;;;21.80;99.90;;;;;;4733383;30;20451;-83
2022/09/09 11:49:45;;;;;;;3.83;0.68;;;22.10;99.90;;;;;;4733738;30;20048;-83
2022/09/09 11:52:23;;;;;;;1.55;0.30;;;22.20;99.90;;;;;;4730091;30;20057;-83
2022/09/09 11:54:50;;;;;;;2.15;0.22;;;22.30;99.90;;;;;;4733209;30;20134;-83
2022/09/09 11:57:36;;;;;;;0.90;0.30;;;22.20;99.90;;;;;;4733272;30;20060;-86
2022/09/09 12:00:03;;;;;;;2.53;0.30;;;22.40;99.90;;;;;;4718255;30;20137;-85
2022/09/09 12:02:30;;;;;;;1.77;0.30;;;22.50;99.90;;;;;;4733530;30;20059;-83
2022/09/09 12:05:08;;;;;;;1.17;0.30;;;22.50;99.90;;;;;;4731612;30;20814;-86
2022/09/09 12:07:58;;;;;;;1.98;0.28;;;22.40;99.90;;;;;;4733013;30;20057;-84
2022/09/09 12:10:32;;;;;;;2.70;0.40;;;22.20;99.90;;;;;;4671968;30;20063;-85
2022/09/09 12:13:22;;;;;;;1.48;0.28;;;22.00;99.90;;;;;;4676701;30;20057;-84
2022/09/09 12:15:58;;;;;;;2.58;0.40;;;21.90;99.90;;;;;;4690932;30;20068;-85
2022/09/09 12:18:31;;;;;;;1.20;0.30;;;22.20;99.90;;;;;;4696963;30;20049;-83
2022/09/09 12:21:24;;;;;;;2.40;0.30;;;22.40;99.90;;;;;;4689436;30;20115;-82
2022/09/09 12:23:55;;;;;;;2.05;0.40;;;22.70;99.90;;;;;;4700311;30;20546;-83
2022/09/09 12:26:40;;;;;;;1.75;0.20;;;22.60;99.90;;;;;;4693880;30;20084;-83
2022/09/09 12:29:13;;;;;;;2.13;0.30;;;22.40;99.90;;;;;;4682182;30;20065;-82
2022/09/09 12:32:14;;;;;;;2.22;0.40;;;22.20;99.90;;;;;;4686702;30;20065;-84
2022/09/09 12:34:41;;;;;;;1.90;0.30;;;22.20;99.90;;;;;;4687701;30;20061;-85
2022/09/09 12:37:23;;;;;;;1.23;0.45;;;22.30;99.90;;;;;;4690470;30;20062;-84
2022/09/09 12:39:56;;;;;;;1.70;0.30;;;22.30;99.90;;;;;;4693908;30;20082;-84
2022/09/09 12:42:23;;;;;;;1.20;0.38;;;22.30;99.90;;;;;;4688023;30;20042;-84
2022/09/09 12:44:57;;;;;;;1.67;0.45;;;22.30;99.90;;;;;;4694449;30;20120;-83
2022/09/09 12:47:30;;;;;;;1.77;0.28;;;22.40;99.90;;;;;;4727678;30;20462;-84
2022/09/09 12:49:56;;;;;;;1.88;0.30;;;22.40;99.90;;;;;;4770493;30;20048;-82
2022/09/09 12:52:37;;;;;;;1.58;0.30;;;22.50;99.90;;;;;;4770578;30;20065;-81
2022/09/09 12:55:05;;;;;;;0.60;0.20;;;22.50;99.90;;;;;;4777485;30;20048;-81
2022/09/09 12:57:36;;;;;;;1.52;0.30;;;22.40;99.90;;;;;;4788763;30;20189;-82
2022/09/09 13:00:23;;;;;;;1.85;0.20;;;22.20;99.90;;;;;;4772051;30;20043;-82
2022/09/09 13:02:54;;;;;;;1.98;0.15;;;22.10;99.90;;;;;;4772121;30;20142;-82
2022/09/09 13:05:39;;;;;;;1.00;0.30;;;22.00;99.90;;;;;;4778336;30;20405;-83
2022/09/09 13:08:08;;;;;;;1.05;0.28;;;21.90;99.90;;;;;;4776813;30;20497;-83
2022/09/09 13:10:42;;;;;;;1.00;0.20;;;22.10;99.90;;;;;;4788314;30;20051;-84
2022/09/09 13:13:16;;;;;;;1.75;0.30;;;22.30;99.90;;;;;;4788501;30;20082;-83
2022/09/09 13:15:53;;;;;;;2.30;0.20;;;22.40;99.90;;;;;;4787955;29;20149;-83
2022/09/09 13:18:24;;;;;;;1.17;0.30;;;22.60;99.90;;;;;;4788156;30;20051;-83